Airfield :
LOGIN :

Register | Disclaimer

   EN    FR    IT 

 










Legend :    VFR   Marginal VFR   IFR   Intensive IFR   Very Intensive IFR
Visi :
Ceiling :
>= 8 km
>= 3000ft
5 to 8 km
1000 to 3000 ft
1500m to 5 km
500 to 1000 ft
800 to 1500m
200 to 500 ft
< 800m
< 200 ft
Symbols :   Thunderstorms  Fog  Heavy snow  Heavy precipitations  Wind > 20 kt
SIGMETs :     Misc.  Thunderstorms  Icing  Turbulence  Mountain Waves  Volcanic Ashes







- Airport Elevation : 1910 ft
- IATA code : RDZ
- Download approach charts


LFCR - Rodez

CURRENT METAR :
  • 191400Z AUTO VRB06KT CAVOK 29/15 Q1017 NOSIG

EXPIRED METARs :
  • 191330Z AUTO 32005KT 280V010 CAVOK 28/15 Q1017 NOSIG
  • 191300Z AUTO VRB04KT CAVOK 28/16 Q1017 NOSIG
  • 191230Z AUTO 32004KT 270V010 CAVOK 28/16 Q1017 NOSIG
  • 191200Z AUTO VRB03KT CAVOK 28/15 Q1018 NOSIG

TAF TAF LFCR
Valid from the 19 at 12:00 until the 20 at 12:00 UTC


191100Z 1912/2012 28005KT CAVOK
BECMG 1919/1921 VRB02KT
BECMG 2010/2012 28005KT
PROB30
TEMPO 2011/2012 SCT050TCU
No reported NOTAMs for that airfield.
1 SIGMET reported for the Bordeaux FIR (LFBB) :
 
Embedded thunderstorms
LFBB SIGMET 1 VALID 191300/191500 LFPW
LFBB BORDEAUX FIR/UIR EMBD TS FCST NW OF LINE N4545 W00145 - N4630 W00045 TOP FL380 MOV NE 15KT NC=



MET'MAP, your aeronautical weather chart ! - Copyright ORBIFLY December 2007 - Disclaimer

ORBIFLY MET'MAP TEAM :

Programming & Development : Alexandra Zaïnal
Concept & Development : Baudouin d'Aumeries
Co-Development & Prog : Marc-Olivier Méhu
Technical & hardware support : Manuel Goepfert

Contact : metmap@orbifly.com




SOURCES & CREDITS :

   NOAA